New Glarus, Wisconsin
Current Conditions -  °F | °C
As of 6:40 PM on Friday 31 Oct 2014 (Local Time) from KEFT Reporting Station
Scattered Clouds Scattered Clouds  
Wind Chill: 26°   Ceiling: Unl
Heat Index: 34°   Visibility: 10mi
Dew Point: 19°   Wind: 10mph
Humidity: 56%   Direction: 360°N
Pressure: 30.38"   Gusts: 22mph
Location:  42.81°N, 89.64°W
Report Text: KEFT 312340Z AUTO 36009G19KT 10SM SCT045 01/M07 A3038 RMK AO2
Loading
Personal Weather Stations






























Interactive Weather Map
Tropical Storm Tracking
New forecast layout! Learn more

10-Day Weather Forecast

Advertisements
Track Severe Weather on mobile